Time;durP1;ratioP1;P1;durP2;ratioP2;P2;SDS_P1;SDS_P2;PMS_P1;PMS_P2;Temp;Humidity;BMP_temperature;BMP_pressure;BME280_temperature;BME280_humidity;BME280_pressure;Samples;Min_cycle;Max_cycle;Signal;HPM_P1;HPM_P2
2023/07/05 00:00:24;;;;;;;7.93;7.20;;;17.30;99.90;;;;;;5071303;28;20644;-73
2023/07/05 00:02:53;;;;;;;8.00;6.93;;;17.30;99.90;;;;;;5070763;28;20190;-72
2023/07/05 00:05:20;;;;;;;8.37;7.40;;;17.30;99.90;;;;;;5071072;28;20181;-72
2023/07/05 00:07:45;;;;;;;7.67;6.80;;;17.30;99.90;;;;;;5071142;28;20170;-71
2023/07/05 00:10:11;;;;;;;10.13;6.20;;;17.30;99.90;;;;;;5070972;28;20209;-73
2023/07/05 00:12:37;;;;;;;6.90;6.30;;;17.30;99.90;;;;;;5070989;28;20257;-72
2023/07/05 00:15:04;;;;;;;7.23;6.43;;;17.30;99.90;;;;;;5070878;28;20641;-71
2023/07/05 00:17:33;;;;;;;7.47;6.00;;;17.30;99.90;;;;;;5071098;28;20211;-71
2023/07/05 00:19:59;;;;;;;7.23;6.50;;;17.30;99.90;;;;;;5070962;28;20167;-72
2023/07/05 00:22:28;;;;;;;6.87;6.27;;;17.20;99.90;;;;;;5086782;28;20196;-71
2023/07/05 00:24:54;;;;;;;34.70;13.10;;;17.30;99.90;;;;;;5091095;28;20303;-71
2023/07/05 00:27:22;;;;;;;7.03;6.43;;;17.20;99.90;;;;;;5091275;28;20166;-72
2023/07/05 00:29:48;;;;;;;8.07;7.27;;;17.20;99.90;;;;;;5091112;28;20200;-70
2023/07/05 00:32:13;;;;;;;11.93;11.10;;;17.20;99.90;;;;;;5091035;28;20193;-72
2023/07/05 00:34:39;;;;;;;7.97;7.17;;;17.20;99.90;;;;;;5090955;28;20176;-72
2023/07/05 00:37:05;;;;;;;20.47;11.70;;;17.20;99.90;;;;;;5090724;28;20209;-70
2023/07/05 00:39:30;;;;;;;8.57;6.80;;;17.20;99.90;;;;;;5091196;28;20177;-72
2023/07/05 00:41:56;;;;;;;9.37;6.10;;;17.20;99.90;;;;;;5090851;28;20185;-71
2023/07/05 00:44:22;;;;;;;9.20;6.57;;;17.20;99.90;;;;;;5089986;28;20720;-72
2023/07/05 00:46:56;;;;;;;6.70;6.07;;;17.20;99.90;;;;;;5091062;28;20174;-71
2023/07/05 00:49:25;;;;;;;7.77;7.00;;;17.20;99.90;;;;;;5082297;28;20225;-71
2023/07/05 00:51:56;;;;;;;7.40;6.53;;;17.10;99.90;;;;;;5080371;28;20296;-72
2023/07/05 00:54:28;;;;;;;12.17;6.80;;;17.20;99.90;;;;;;5090766;28;20170;-72
2023/07/05 00:57:03;;;;;;;7.60;6.63;;;17.20;99.90;;;;;;5094732;28;20205;-71
2023/07/05 00:59:34;;;;;;;7.87;6.33;;;17.20;99.90;;;;;;5076548;28;20201;-72
2023/07/05 01:02:00;;;;;;;6.97;6.37;;;17.20;99.90;;;;;;5094465;28;20185;-72
2023/07/05 01:04:25;;;;;;;7.00;6.30;;;17.20;99.90;;;;;;5094748;28;20168;-72
2023/07/05 01:06:51;;;;;;;8.53;6.43;;;17.20;99.90;;;;;;5094574;28;20169;-72
2023/07/05 01:09:17;;;;;;;12.50;7.10;;;17.20;99.90;;;;;;5076232;28;20201;-71
2023/07/05 01:12:11;;;;;;;7.37;6.33;;;17.20;99.90;;;;;;5094468;28;20235;-71
2023/07/05 01:15:02;;;;;;;6.50;5.90;;;17.20;99.90;;;;;;5094097;28;20173;-71
2023/07/05 01:17:43;;;;;;;24.03;14.30;;;17.10;99.90;;;;;;5074458;28;20672;-71
2023/07/05 01:20:28;;;;;;;25.10;11.33;;;17.10;99.90;;;;;;5094137;28;20170;-72
2023/07/05 01:23:02;;;;;;;7.80;7.00;;;17.10;99.90;;;;;;5093814;28;20200;-72
2023/07/05 01:25:35;;;;;;;7.33;6.00;;;17.10;99.90;;;;;;5094249;28;20169;-71
2023/07/05 01:28:10;;;;;;;7.53;5.90;;;17.10;99.90;;;;;;5075881;28;20252;-71
2023/07/05 01:31:04;;;;;;;8.00;7.40;;;17.10;99.90;;;;;;5093914;28;20687;-72
2023/07/05 01:33:41;;;;;;;7.23;6.57;;;17.10;99.90;;;;;;5093459;28;20166;-72
2023/07/05 01:36:09;;;;;;;9.23;6.67;;;17.10;99.90;;;;;;5093816;28;20537;-72
2023/07/05 01:38:34;;;;;;;7.57;6.20;;;17.10;99.90;;;;;;5093889;28;20260;-71
2023/07/05 01:41:04;;;;;;;8.63;6.50;;;17.10;99.90;;;;;;5093694;28;20277;-71
2023/07/05 01:43:32;;;;;;;10.23;6.40;;;17.10;99.90;;;;;;5093017;28;20509;-72
2023/07/05 01:46:12;;;;;;;8.10;6.23;;;17.00;99.90;;;;;;5093662;28;20173;-71
2023/07/05 01:49:11;;;;;;;7.87;6.10;;;17.00;99.90;;;;;;5075480;28;20656;-72
2023/07/05 01:51:52;;;;;;;9.00;6.40;;;17.00;99.90;;;;;;5075327;28;20695;-71
2023/07/05 01:54:24;;;;;;;7.67;5.63;;;17.00;99.90;;;;;;5074964;28;20200;-71
2023/07/05 01:57:02;;;;;;;8.90;7.43;;;17.00;99.90;;;;;;5093626;28;20184;-71
2023/07/05 01:59:41;;;;;;;7.90;6.93;;;17.00;99.90;;;;;;5093670;28;20242;-72
2023/07/05 02:02:09;;;;;;;6.77;5.87;;;17.00;99.90;;;;;;5083208;28;20202;-72
2023/07/05 02:04:36;;;;;;;7.23;6.50;;;17.00;99.90;;;;;;5072803;28;20198;-71
2023/07/05 02:07:05;;;;;;;8.03;5.73;;;17.10;99.90;;;;;;5073368;28;20224;-72
2023/07/05 02:09:36;;;;;;;5.70;5.17;;;17.10;99.90;;;;;;5073242;28;20205;-72
2023/07/05 02:12:01;;;;;;;11.27;7.03;;;17.10;99.90;;;;;;5072844;28;20186;-71
2023/07/05 02:14:27;;;;;;;43.60;7.53;;;17.10;99.90;;;;;;5072776;28;20181;-71
2023/07/05 02:16:53;;;;;;;6.47;5.50;;;17.20;99.90;;;;;;5073489;28;20235;-72
2023/07/05 02:19:18;;;;;;;7.77;5.97;;;17.20;99.90;;;;;;5073067;28;20538;-72
2023/07/05 02:21:46;;;;;;;9.30;7.43;;;17.20;99.90;;;;;;5072861;28;20288;-71
2023/07/05 02:24:11;;;;;;;6.23;5.20;;;17.20;99.90;;;;;;5072400;28;20174;-71
2023/07/05 02:26:37;;;;;;;8.37;7.53;;;17.20;99.90;;;;;;5072708;28;20311;-71
2023/07/05 02:29:03;;;;;;;7.17;6.43;;;17.20;99.90;;;;;;5074295;28;20197;-71
2023/07/05 02:31:29;;;;;;;5.70;5.20;;;17.20;99.90;;;;;;5092876;28;20193;-71
2023/07/05 02:33:55;;;;;;;16.23;11.87;;;17.20;99.90;;;;;;5074275;28;20170;-71
2023/07/05 02:36:20;;;;;;;6.50;5.70;;;17.20;99.90;;;;;;5094884;28;20667;-73
2023/07/05 02:38:46;;;;;;;5.30;4.90;;;17.20;99.90;;;;;;5096078;28;20166;-80
2023/07/05 02:41:11;;;;;;;26.40;20.43;;;17.20;99.90;;;;;;5095634;28;20185;-78
2023/07/05 02:43:37;;;;;;;8.93;8.33;;;17.10;99.90;;;;;;5092462;28;20205;-76
2023/07/05 02:46:05;;;;;;;5.73;5.33;;;17.10;99.90;;;;;;5075660;28;20262;-74
2023/07/05 02:48:31;;;;;;;56.40;34.67;;;17.10;99.90;;;;;;5075738;28;20205;-78
2023/07/05 02:50:57;;;;;;;5.27;4.87;;;17.00;99.90;;;;;;5075402;28;20209;-77
2023/07/05 02:53:22;;;;;;;48.40;12.67;;;17.00;99.90;;;;;;5075819;28;20609;-74
2023/07/05 02:55:50;;;;;;;5.63;5.00;;;16.90;99.90;;;;;;5075107;28;20668;-76
2023/07/05 02:58:16;;;;;;;4.87;4.37;;;16.90;99.90;;;;;;5087884;28;20177;-72
2023/07/05 03:00:43;;;;;;;5.43;5.03;;;16.80;99.90;;;;;;5095331;28;20226;-77
2023/07/05 03:03:08;;;;;;;5.00;4.60;;;16.80;99.90;;;;;;5094542;28;20231;-78
2023/07/05 03:05:34;;;;;;;6.20;5.67;;;16.70;99.90;;;;;;5095147;28;20173;-73
2023/07/05 03:07:59;;;;;;;7.40;5.73;;;16.60;99.90;;;;;;5092133;28;20204;-77
2023/07/05 03:10:25;;;;;;;41.33;10.17;;;16.60;99.90;;;;;;5074241;28;20668;-76
2023/07/05 03:12:51;;;;;;;4.70;4.40;;;16.50;99.90;;;;;;5074407;28;20189;-78
2023/07/05 03:15:16;;;;;;;4.57;4.27;;;16.50;99.90;;;;;;5074194;28;20167;-75
2023/07/05 03:17:43;;;;;;;28.07;8.10;;;16.40;99.90;;;;;;5074296;28;20212;-78
2023/07/05 03:20:09;;;;;;;30.83;11.23;;;16.20;99.90;;;;;;5073914;28;20245;-78
2023/07/05 03:22:34;;;;;;;210.83;33.60;;;15.80;99.90;;;;;;5073802;28;20197;-76
2023/07/05 03:25:00;;;;;;;27.10;13.97;;;15.60;99.90;;;;;;5091821;28;20238;-76
2023/07/05 03:27:28;;;;;;;30.93;14.50;;;15.50;99.90;;;;;;5094328;28;20174;-75
2023/07/05 03:29:55;;;;;;;256.57;65.53;;;15.30;99.90;;;;;;5095082;28;20173;-74
2023/07/05 03:32:21;;;;;;;16.20;8.77;;;15.20;99.90;;;;;;5094115;28;20192;-75
2023/07/05 03:34:47;;;;;;;30.53;18.47;;;15.10;99.90;;;;;;5094835;28;20272;-75
2023/07/05 03:37:13;;;;;;;11.37;10.00;;;15.00;99.90;;;;;;5076568;28;20252;-75
2023/07/05 03:39:38;;;;;;;524.90;145.50;;;14.90;99.90;;;;;;5094289;28;20216;-75
2023/07/05 03:42:04;;;;;;;8.73;7.90;;;14.80;99.90;;;;;;5093533;28;20186;-77
2023/07/05 03:44:30;;;;;;;18.33;13.93;;;14.70;99.90;;;;;;5094203;28;20274;-75
2023/07/05 03:46:55;;;;;;;53.43;24.77;;;14.60;99.90;;;;;;5093994;28;20685;-73
2023/07/05 03:49:21;;;;;;;5.83;5.53;;;14.60;99.90;;;;;;5093950;28;20533;-77
2023/07/05 03:51:47;;;;;;;36.53;29.03;;;14.60;99.90;;;;;;5084825;28;20221;-76
2023/07/05 03:54:12;;;;;;;28.07;18.93;;;14.50;99.90;;;;;;5074005;28;20737;-75
2023/07/05 03:56:38;;;;;;;7.40;6.90;;;14.50;99.90;;;;;;5073958;28;20522;-77
2023/07/05 03:59:03;;;;;;;199.93;43.40;;;14.50;99.90;;;;;;5073227;28;20205;-73
2023/07/05 04:01:30;;;;;;;703.27;229.30;;;14.40;99.90;;;;;;5074039;28;20248;-76
2023/07/05 04:03:58;;;;;;;29.17;12.50;;;14.30;99.90;;;;;;5055544;28;20491;-76
2023/07/05 04:06:27;;;;;;;101.13;86.33;;;14.30;99.90;;;;;;5073738;28;20174;-75
2023/07/05 04:08:52;;;;;;;66.23;51.97;;;14.20;99.90;;;;;;5073306;28;20622;-77
2023/07/05 04:11:18;;;;;;;54.83;48.87;;;14.20;99.90;;;;;;5073608;28;20201;-75
2023/07/05 04:13:46;;;;;;;126.67;92.87;;;14.20;99.90;;;;;;5053646;28;20186;-70
2023/07/05 04:16:15;;;;;;;150.57;108.07;;;14.20;99.90;;;;;;5071086;28;20232;-71
2023/07/05 04:18:41;;;;;;;12.33;11.20;;;14.10;99.90;;;;;;5071775;28;20249;-71
2023/07/05 04:21:07;;;;;;;15.10;13.57;;;14.10;99.90;;;;;;5091503;28;20347;-70
2023/07/05 04:23:33;;;;;;;17.63;15.90;;;14.00;99.90;;;;;;5091093;28;20496;-70
2023/07/05 04:25:59;;;;;;;8.40;7.60;;;14.00;99.90;;;;;;5090767;28;20215;-71
2023/07/05 04:28:25;;;;;;;245.17;126.20;;;14.10;99.90;;;;;;5091224;28;20197;-71
2023/07/05 04:30:50;;;;;;;8.60;7.90;;;14.10;99.90;;;;;;5093490;28;20264;-72
2023/07/05 04:33:16;;;;;;;15.07;13.63;;;14.20;99.90;;;;;;5094813;28;20215;-71
2023/07/05 04:35:50;;;;;;;123.27;73.23;;;14.30;99.90;;;;;;5095137;28;20181;-70
2023/07/05 04:38:15;;;;;;;16.60;14.80;;;14.50;99.90;;;;;;5095020;28;20181;-71
2023/07/05 04:40:41;;;;;;;81.37;71.33;;;14.60;99.90;;;;;;5094788;28;20205;-71
2023/07/05 04:43:06;;;;;;;11.67;9.90;;;14.80;99.90;;;;;;5094677;28;20181;-71
2023/07/05 04:45:32;;;;;;;11.70;11.03;;;14.90;99.90;;;;;;5094857;28;20165;-71
2023/07/05 04:47:58;;;;;;;242.40;199.27;;;14.90;99.90;;;;;;5081544;28;20182;-72
2023/07/05 04:50:23;;;;;;;41.70;38.87;;;15.00;99.90;;;;;;5074471;28;20189;-71
2023/07/05 04:52:49;;;;;;;114.97;102.17;;;15.00;99.90;;;;;;5074104;28;20621;-70
2023/07/05 04:55:14;;;;;;;170.73;153.37;;;15.10;99.90;;;;;;5074286;28;20170;-71
2023/07/05 04:57:42;;;;;;;107.07;99.33;;;15.10;99.90;;;;;;5074486;28;20213;-71
2023/07/05 05:00:09;;;;;;;195.40;181.43;;;15.10;99.90;;;;;;5074366;28;20292;-71
2023/07/05 05:02:34;;;;;;;124.17;114.90;;;15.10;99.90;;;;;;5073653;28;20198;-72
2023/07/05 05:05:00;;;;;;;166.63;147.90;;;15.10;99.90;;;;;;5056167;28;20171;-71
2023/07/05 05:07:26;;;;;;;729.80;524.37;;;15.20;99.90;;;;;;5074321;28;20197;-71
2023/07/05 05:09:52;;;;;;;357.13;311.33;;;15.30;99.90;;;;;;5074419;28;20251;-72
2023/07/05 05:12:17;;;;;;;93.57;88.37;;;15.30;99.90;;;;;;5089429;28;20205;-71
2023/07/05 05:14:43;;;;;;;656.43;606.03;;;15.50;99.90;;;;;;5090637;28;20173;-71
2023/07/05 05:17:08;;;;;;;706.73;657.47;;;15.40;99.90;;;;;;5094158;28;20177;-71
2023/07/05 05:19:34;;;;;;;779.67;721.80;;;15.50;99.90;;;;;;5094321;28;20293;-70
2023/07/05 05:22:00;;;;;;;827.30;771.67;;;15.60;99.90;;;;;;5094064;28;20261;-71
2023/07/05 05:24:25;;;;;;;853.50;778.03;;;15.70;99.90;;;;;;5094010;28;20166;-71
2023/07/05 05:26:53;;;;;;;1030.03;851.17;;;15.60;99.90;;;;;;5092549;28;20253;-72
2023/07/05 05:29:19;;;;;;;877.43;815.27;;;15.80;99.90;;;;;;5075687;28;20633;-71
2023/07/05 05:31:44;;;;;;;731.67;679.43;;;16.00;99.90;;;;;;5088041;28;20259;-71
2023/07/05 05:34:10;;;;;;;683.40;636.80;;;16.10;99.90;;;;;;5072539;28;20232;-72
2023/07/05 05:36:35;;;;;;;740.47;679.83;;;16.30;99.90;;;;;;5073449;28;20550;-70
2023/07/05 05:39:01;;;;;;;852.27;625.57;;;16.30;99.90;;;;;;5073311;28;20202;-70
2023/07/05 05:41:27;;;;;;;731.80;681.97;;;16.10;99.90;;;;;;5079905;28;20185;-71
2023/07/05 05:43:52;;;;;;;645.00;602.93;;;16.10;99.90;;;;;;5093378;28;20181;-71
2023/07/05 05:46:18;;;;;;;538.07;504.47;;;16.20;99.90;;;;;;5091542;28;20277;-70
2023/07/05 05:48:43;;;;;;;993.00;913.60;;;16.40;99.90;;;;;;5073269;28;20182;-70
2023/07/05 05:51:09;;;;;;;576.53;538.77;;;16.50;99.90;;;;;;5073180;28;20209;-71
2023/07/05 05:53:35;;;;;;;696.17;608.53;;;16.50;99.90;;;;;;5073115;28;20452;-71
2023/07/05 05:56:00;;;;;;;723.43;655.83;;;16.40;99.90;;;;;;5088691;28;20550;-71
2023/07/05 05:58:26;;;;;;;767.87;694.83;;;16.20;99.90;;;;;;5073199;28;20192;-70
2023/07/05 06:00:52;;;;;;;729.00;679.53;;;15.90;99.90;;;;;;5073003;28;20662;-71
2023/07/05 06:03:17;;;;;;;838.47;771.37;;;15.80;99.90;;;;;;5072863;28;20181;-71
2023/07/05 06:05:43;;;;;;;929.40;833.77;;;15.70;99.90;;;;;;5084138;28;20188;-71
2023/07/05 06:08:09;;;;;;;729.63;682.77;;;15.60;99.90;;;;;;5091624;28;20181;-72
2023/07/05 06:10:34;;;;;;;930.93;736.77;;;15.60;99.90;;;;;;5073231;28;20216;-72
2023/07/05 06:13:00;;;;;;;1062.40;615.70;;;15.60;99.90;;;;;;5054750;28;20265;-71
2023/07/05 06:15:26;;;;;;;603.07;553.93;;;15.50;99.90;;;;;;5073107;28;20629;-70
2023/07/05 06:17:53;;;;;;;591.30;556.47;;;15.50;99.90;;;;;;5073119;28;20170;-70
2023/07/05 06:20:18;;;;;;;612.23;572.83;;;15.70;99.90;;;;;;5072828;28;20571;-71
2023/07/05 06:22:44;;;;;;;873.00;777.83;;;15.80;99.90;;;;;;5072460;28;20194;-72
2023/07/05 06:25:10;;;;;;;366.33;347.97;;;15.90;99.90;;;;;;5072777;28;20185;-71
2023/07/05 06:27:36;;;;;;;675.40;622.13;;;15.90;99.90;;;;;;5072773;28;20178;-71
2023/07/05 06:30:03;;;;;;;655.90;600.97;;;15.90;99.90;;;;;;5054592;28;20615;-71
2023/07/05 06:32:29;;;;;;;508.17;473.60;;;16.00;99.90;;;;;;5072207;28;20683;-71
2023/07/05 06:34:54;;;;;;;378.57;360.10;;;16.00;99.90;;;;;;5072466;28;20178;-71
2023/07/05 06:37:20;;;;;;;448.93;423.53;;;16.10;99.90;;;;;;5072502;28;20182;-72
2023/07/05 06:39:46;;;;;;;466.13;443.07;;;16.10;99.90;;;;;;5072489;28;20618;-72
2023/07/05 06:42:11;;;;;;;672.13;623.27;;;16.20;99.90;;;;;;5053516;28;20194;-72
2023/07/05 06:44:37;;;;;;;791.47;705.47;;;16.20;99.90;;;;;;5071943;28;20170;-72
2023/07/05 06:47:03;;;;;;;706.73;637.67;;;16.20;99.90;;;;;;5054365;28;20174;-71
2023/07/05 06:49:28;;;;;;;536.40;500.10;;;16.20;99.90;;;;;;5072397;28;20383;-72
2023/07/05 06:51:54;;;;;;;557.40;511.73;;;16.20;99.90;;;;;;5071601;28;20742;-72
2023/07/05 06:54:20;;;;;;;512.67;462.80;;;16.40;99.90;;;;;;5071543;28;20182;-72
2023/07/05 06:56:46;;;;;;;433.90;397.60;;;16.60;99.90;;;;;;5072189;28;20172;-72
2023/07/05 06:59:12;;;;;;;456.37;415.03;;;16.90;99.90;;;;;;5072284;28;20676;-69
2023/07/05 07:01:38;;;;;;;409.60;379.40;;;17.30;99.90;;;;;;5072772;28;20197;-69
2023/07/05 07:04:07;;;;;;;387.90;364.30;;;17.30;99.90;;;;;;5053955;28;20174;-71
2023/07/05 07:06:34;;;;;;;533.20;479.87;;;17.20;99.90;;;;;;5072495;28;20177;-72
2023/07/05 07:09:03;;;;;;;470.87;437.67;;;17.00;99.90;;;;;;5054116;28;20717;-72
2023/07/05 07:11:29;;;;;;;910.67;604.00;;;17.00;99.90;;;;;;5071863;28;20620;-72
2023/07/05 07:13:54;;;;;;;680.53;624.20;;;16.90;99.90;;;;;;5053571;28;20178;-71
2023/07/05 07:16:20;;;;;;;644.33;599.70;;;16.70;99.90;;;;;;5071659;28;20232;-72
2023/07/05 07:18:47;;;;;;;684.20;628.47;;;16.80;99.90;;;;;;5071685;28;20636;-71
2023/07/05 07:21:15;;;;;;;850.97;780.13;;;16.80;99.90;;;;;;5071508;28;20285;-71
2023/07/05 07:23:41;;;;;;;230.40;219.40;;;17.20;99.90;;;;;;5071338;28;20249;-71
2023/07/05 07:26:16;;;;;;;335.87;315.67;;;17.80;99.90;;;;;;5071653;28;20182;-70
2023/07/05 07:28:45;;;;;;;543.50;488.00;;;18.00;99.90;;;;;;5071555;28;20238;-72
2023/07/05 07:31:23;;;;;;;338.63;311.20;;;17.80;99.90;;;;;;5053489;28;20201;-71
2023/07/05 07:33:50;;;;;;;785.97;644.77;;;17.50;99.90;;;;;;5053247;28;20196;-69
2023/07/05 07:36:19;;;;;;;633.20;513.60;;;17.30;99.90;;;;;;5053531;28;20178;-72
2023/07/05 07:38:44;;;;;;;259.30;239.57;;;17.20;99.90;;;;;;5071393;28;20174;-70
2023/07/05 07:41:20;;;;;;;466.03;435.37;;;17.00;99.90;;;;;;5071394;28;20217;-72
2023/07/05 07:43:46;;;;;;;476.53;446.17;;;17.00;99.90;;;;;;5070350;28;20180;-72
2023/07/05 07:46:15;;;;;;;428.70;402.27;;;16.90;99.90;;;;;;5071361;28;20182;-72
2023/07/05 07:48:42;;;;;;;827.30;754.10;;;16.80;99.90;;;;;;5071295;28;20461;-71
2023/07/05 07:51:09;;;;;;;799.93;741.63;;;16.70;99.90;;;;;;5071172;28;20263;-72
2023/07/05 07:53:35;;;;;;;803.47;741.10;;;16.70;99.90;;;;;;5071299;28;20178;-71
2023/07/05 07:56:09;;;;;;;779.53;720.40;;;16.60;99.90;;;;;;5071293;28;20650;-70
2023/07/05 07:58:35;;;;;;;722.90;645.70;;;16.70;99.90;;;;;;5071235;28;20182;-71
2023/07/05 08:01:10;;;;;;;1009.23;757.53;;;16.80;99.90;;;;;;5071013;28;20206;-73
2023/07/05 08:03:36;;;;;;;525.40;482.83;;;17.00;99.90;;;;;;5053064;28;20196;-72
2023/07/05 08:06:01;;;;;;;243.13;230.17;;;17.00;99.90;;;;;;5052544;28;20247;-71
2023/07/05 08:08:27;;;;;;;520.67;470.17;;;17.00;99.90;;;;;;5053300;28;20178;-71
2023/07/05 08:10:52;;;;;;;467.40;427.40;;;17.10;99.90;;;;;;5070992;28;20210;-71
2023/07/05 08:13:18;;;;;;;244.67;231.43;;;17.10;99.90;;;;;;5070732;28;20185;-70
2023/07/05 08:15:44;;;;;;;199.10;189.13;;;17.30;99.90;;;;;;5071063;28;20208;-70
2023/07/05 08:18:09;;;;;;;923.67;794.77;;;17.70;99.90;;;;;;5053137;28;20463;-70
2023/07/05 08:20:35;;;;;;;258.03;246.77;;;18.00;99.90;;;;;;5071138;28;20210;-73
2023/07/05 08:23:00;;;;;;;274.37;262.37;;;18.00;99.90;;;;;;5052805;28;20181;-72
2023/07/05 08:25:26;;;;;;;515.27;487.13;;;18.30;99.90;;;;;;5053182;28;20644;-72
2023/07/05 08:27:51;;;;;;;583.90;553.73;;;18.70;99.90;;;;;;5052993;28;20178;-72
2023/07/05 08:30:17;;;;;;;590.80;558.20;;;18.60;99.90;;;;;;5071003;28;20182;-72
2023/07/05 08:32:43;;;;;;;388.10;371.10;;;18.60;99.90;;;;;;5075586;28;20209;-71
2023/07/05 08:35:08;;;;;;;684.77;643.13;;;18.60;99.90;;;;;;5067388;28;20181;-71
2023/07/05 08:37:34;;;;;;;632.93;599.37;;;19.00;99.90;;;;;;5053017;28;20633;-71
2023/07/05 08:39:59;;;;;;;836.47;754.37;;;19.00;99.90;;;;;;5086279;28;20236;-72
2023/07/05 08:43:03;;;;;;;727.87;685.93;;;19.10;99.90;;;;;;5070370;28;20186;-72
2023/07/05 08:45:35;;;;;;;751.73;708.57;;;19.40;99.90;;;;;;5070195;28;20193;-72
2023/07/05 08:48:04;;;;;;;877.73;818.40;;;19.40;99.90;;;;;;5070690;28;20253;-71
2023/07/05 08:50:34;;;;;;;861.17;808.07;;;19.60;99.90;;;;;;5070628;28;20197;-73
2023/07/05 08:53:06;;;;;;;1024.35;917.03;;;19.80;99.90;;;;;;5071462;28;20190;-72
2023/07/05 08:55:51;;;;;;;876.20;820.40;;;20.40;99.90;;;;;;5070802;28;20171;-73
2023/07/05 08:58:25;;;;;;;924.43;858.60;;;20.50;99.90;;;;;;5070706;28;20526;-72
2023/07/05 09:01:03;;;;;;;887.55;831.90;;;20.60;99.90;;;;;;5052449;28;20291;-73
2023/07/05 09:03:30;;;;;;;942.20;876.57;;;20.30;99.90;;;;;;5070609;28;20174;-73
2023/07/05 09:06:20;;;;;;;1007.08;931.85;;;19.90;99.90;;;;;;5069806;28;20831;-72
2023/07/05 09:09:00;;;;;;;908.47;850.70;;;19.90;99.90;;;;;;5070448;28;20716;-72
2023/07/05 09:11:42;;;;;;;869.77;816.00;;;19.90;99.90;;;;;;5070446;28;20245;-72
2023/07/05 09:14:26;;;;;;;887.37;831.70;;;19.80;99.90;;;;;;5070177;28;20584;-73
2023/07/05 09:16:59;;;;;;;854.80;802.43;;;19.80;99.90;;;;;;5072772;28;20162;-72
2023/07/05 09:19:42;;;;;;;871.77;817.83;;;20.00;99.90;;;;;;5056347;28;20210;-73
2023/07/05 09:22:14;;;;;;;883.57;827.87;;;20.20;99.90;;;;;;5073861;28;20272;-72
2023/07/05 09:24:41;;;;;;;848.00;792.20;;;20.20;99.90;;;;;;5073581;28;20659;-71
2023/07/05 09:27:27;;;;;;;819.90;770.47;;;19.80;99.90;;;;;;5073820;28;20699;-70
2023/07/05 09:29:59;;;;;;;904.37;845.50;;;19.70;99.90;;;;;;5073982;28;20215;-71
2023/07/05 09:32:31;;;;;;;894.50;836.33;;;19.50;99.90;;;;;;5073561;28;20243;-70
2023/07/05 09:34:59;;;;;;;830.57;778.90;;;19.50;99.90;;;;;;5073658;28;20181;-70
2023/07/05 09:37:31;;;;;;;803.87;755.77;;;19.60;99.90;;;;;;5086257;28;20181;-70
2023/07/05 09:40:15;;;;;;;852.07;798.30;;;19.80;99.90;;;;;;5093939;28;20209;-70
2023/07/05 09:43:20;;;;;;;829.83;779.10;;;20.20;99.90;;;;;;5084757;28;20194;-72
2023/07/05 09:45:46;;;;;;;876.17;811.53;;;20.70;99.90;;;;;;5068836;28;20186;-71
2023/07/05 09:48:12;;;;;;;847.17;795.13;;;20.70;99.90;;;;;;5075111;28;20261;-71
2023/07/05 09:50:49;;;;;;;861.23;807.13;;;20.60;99.90;;;;;;5086760;28;20192;-69
2023/07/05 09:53:42;;;;;;;817.72;768.53;;;20.70;99.90;;;;;;5090246;28;20184;-71
2023/07/05 09:56:11;;;;;;;835.95;754.47;;;21.50;99.90;;;;;;5090816;28;20248;-71
2023/07/05 09:58:39;;;;;;;857.92;766.45;;;21.90;99.90;;;;;;5073194;28;20175;-70
2023/07/05 10:01:09;;;;;;;710.60;670.50;;;21.80;99.90;;;;;;5072745;28;20205;-71
2023/07/05 10:03:48;;;;;;;691.67;653.28;;;21.70;99.90;;;;;;5072985;28;20167;-71
2023/07/05 10:06:18;;;;;;;796.72;742.08;;;21.80;99.90;;;;;;5073191;28;20166;-70
2023/07/05 10:08:50;;;;;;;810.90;756.45;;;21.40;99.90;;;;;;5073060;28;20253;-72
2023/07/05 10:11:23;;;;;;;821.70;770.53;;;21.20;99.90;;;;;;5072904;28;20597;-72
2023/07/05 10:14:10;;;;;;;837.20;786.47;;;21.00;99.90;;;;;;5072725;28;20170;-71
2023/07/05 10:17:04;;;;;;;792.00;744.47;;;21.20;99.90;;;;;;5079661;28;20652;-71
2023/07/05 10:19:32;;;;;;;754.73;710.43;;;21.30;99.90;;;;;;5074916;28;20205;-70
2023/07/05 10:22:03;;;;;;;784.88;738.45;;;21.20;99.90;;;;;;5074689;28;20196;-70
2023/07/05 10:24:32;;;;;;;770.08;725.03;;;21.20;99.90;;;;;;5080614;28;20197;-70
2023/07/05 10:27:13;;;;;;;806.25;753.78;;;21.20;99.90;;;;;;5072408;28;20488;-70
2023/07/05 10:29:40;;;;;;;737.45;693.30;;;21.70;99.90;;;;;;5072740;28;20170;-71
2023/07/05 10:32:18;;;;;;;612.58;579.58;;;21.90;99.90;;;;;;5072254;28;20244;-69
2023/07/05 10:34:44;;;;;;;698.95;657.58;;;22.10;99.90;;;;;;5072619;28;20178;-71
2023/07/05 10:37:28;;;;;;;590.25;559.95;;;22.30;99.90;;;;;;5054478;28;20612;-71
2023/07/05 10:39:55;;;;;;;721.08;674.50;;;21.80;99.90;;;;;;5072318;28;20197;-74
2023/07/05 10:42:21;;;;;;;734.53;690.75;;;21.40;99.90;;;;;;5072068;28;20205;-68
2023/07/05 10:44:47;;;;;;;691.25;652.88;;;20.90;99.90;;;;;;5064301;28;20213;-70
2023/07/05 10:47:14;;;;;;;705.53;664.47;;;21.00;99.90;;;;;;5092413;28;20683;-72
2023/07/05 10:49:43;;;;;;;710.33;670.28;;;21.30;99.90;;;;;;5092387;28;20170;-71
2023/07/05 10:52:12;;;;;;;627.75;592.55;;;21.80;99.90;;;;;;5092410;28;20189;-71
2023/07/05 10:54:42;;;;;;;619.17;584.70;;;22.50;99.90;;;;;;5092034;28;20205;-69
2023/07/05 10:57:27;;;;;;;455.23;434.27;;;23.00;99.90;;;;;;5073668;28;20177;-71
2023/07/05 11:00:01;;;;;;;612.90;577.92;;;22.80;99.90;;;;;;5087707;28;20201;-70
2023/07/05 11:02:38;;;;;;;614.72;582.53;;;22.40;99.90;;;;;;5071793;28;20291;-70
2023/07/05 11:05:16;;;;;;;695.60;655.72;;;21.80;99.90;;;;;;5071521;28;20197;-72
2023/07/05 11:07:43;;;;;;;580.67;550.83;;;21.90;99.90;;;;;;5071894;28;20251;-73
2023/07/05 11:10:14;;;;;;;592.22;561.22;;;22.30;99.90;;;;;;5071611;28;20265;-72
2023/07/05 11:12:41;;;;;;;769.97;720.08;;;22.20;99.90;;;;;;5053879;28;20198;-70
2023/07/05 11:15:13;;;;;;;634.63;600.75;;;21.90;99.90;;;;;;5053512;28;20703;-71
2023/07/05 11:17:41;;;;;;;688.92;650.58;;;21.60;99.90;;;;;;5079292;28;20180;-71
2023/07/05 11:20:39;;;;;;;706.40;665.92;;;21.30;99.90;;;;;;5091786;28;20196;-71
2023/07/05 11:23:08;;;;;;;618.40;586.15;;;21.70;99.90;;;;;;5071392;28;20170;-72
2023/07/05 11:25:52;;;;;;;541.78;515.33;;;22.10;99.90;;;;;;5071650;28;20174;-74
2023/07/05 11:28:37;;;;;;;583.17;551.63;;;22.70;99.90;;;;;;5071581;28;20261;-70
2023/07/05 11:31:04;;;;;;;479.73;456.48;;;22.90;99.90;;;;;;5071182;28;20205;-69
2023/07/05 11:33:30;;;;;;;380.08;363.65;;;23.30;99.90;;;;;;5071552;28;20277;-72
2023/07/05 11:35:58;;;;;;;375.80;359.25;;;23.60;99.90;;;;;;5071486;28;20263;-70
2023/07/05 11:38:36;;;;;;;289.88;277.38;;;23.90;99.90;;;;;;5071401;28;20269;-70
2023/07/05 11:41:10;;;;;;;348.48;332.85;;;23.90;99.90;;;;;;5070300;28;20696;-71
2023/07/05 11:43:53;;;;;;;414.70;395.50;;;23.50;99.90;;;;;;5071082;28;20174;-71
2023/07/05 11:46:38;;;;;;;604.90;570.20;;;23.00;99.90;;;;;;5071473;28;20281;-70
2023/07/05 11:49:43;;;;;;;565.95;536.45;;;22.70;99.90;;;;;;5061253;28;20170;-72
2023/07/05 11:52:36;;;;;;;544.60;517.80;;;22.80;99.90;;;;;;5049938;28;20201;-70
2023/07/05 11:55:26;;;;;;;535.45;508.95;;;23.20;99.90;;;;;;5080862;28;20182;-70
2023/07/05 11:58:04;;;;;;;541.88;514.78;;;23.30;99.90;;;;;;5085522;28;20170;-70
2023/07/05 12:00:42;;;;;;;549.72;522.25;;;23.40;99.90;;;;;;5071316;28;20202;-71
2023/07/05 12:03:21;;;;;;;577.63;547.72;;;23.80;99.90;;;;;;5070670;28;20564;-72
2023/07/05 12:05:55;;;;;;;574.08;544.92;;;23.70;99.90;;;;;;5071368;28;20249;-72
2023/07/05 12:08:31;;;;;;;557.67;530.22;;;23.40;99.90;;;;;;5071044;28;20201;-72
2023/07/05 12:10:58;;;;;;;526.20;500.77;;;23.60;99.90;;;;;;5077128;28;20688;-70
2023/07/05 12:13:26;;;;;;;560.10;531.63;;;23.60;99.90;;;;;;5072339;28;20575;-73
2023/07/05 12:15:55;;;;;;;511.58;487.30;;;23.60;99.90;;;;;;5091352;28;20166;-70
2023/07/05 12:18:21;;;;;;;575.70;545.53;;;23.50;99.90;;;;;;5091288;28;20169;-73
2023/07/05 12:20:55;;;;;;;626.38;590.50;;;23.00;99.90;;;;;;5090837;28;20201;-71
2023/07/05 12:23:24;;;;;;;792.75;729.20;;;22.40;99.90;;;;;;5090921;28;20252;-70
2023/07/05 12:25:55;;;;;;;815.90;757.15;;;21.70;99.90;;;;;;5072983;28;20556;-69
2023/07/05 12:28:24;;;;;;;1027.40;876.43;;;21.20;99.90;;;;;;5072618;28;20166;-70
2023/07/05 12:30:51;;;;;;;820.67;753.77;;;20.30;99.90;;;;;;5088751;28;20248;-73